sensor_id;sensor_type;location;lat;lon;timestamp;temperature;humidity
49385;DHT22;36795;45.028;38.968;2023-11-21T00:00:35;5.70;88.50
49385;DHT22;36795;45.028;38.968;2023-11-21T00:03:22;5.70;88.70
49385;DHT22;36795;45.028;38.968;2023-11-21T00:06:09;5.70;88.60
49385;DHT22;36795;45.028;38.968;2023-11-21T00:08:55;5.60;88.80
49385;DHT22;36795;45.028;38.968;2023-11-21T00:11:41;5.70;88.30
49385;DHT22;36795;45.028;38.968;2023-11-21T00:14:29;5.60;88.40
49385;DHT22;36795;45.028;38.968;2023-11-21T00:17:15;5.60;88.40
49385;DHT22;36795;45.028;38.968;2023-11-21T00:20:01;5.60;88.20
49385;DHT22;36795;45.028;38.968;2023-11-21T00:22:49;5.60;87.90
49385;DHT22;36795;45.028;38.968;2023-11-21T00:25:36;5.50;87.80
49385;DHT22;36795;45.028;38.968;2023-11-21T00:28:21;5.50;88.20
49385;DHT22;36795;45.028;38.968;2023-11-21T00:31:08;5.50;88.10
49385;DHT22;36795;45.028;38.968;2023-11-21T00:33:53;5.50;88.00
49385;DHT22;36795;45.028;38.968;2023-11-21T00:36:41;5.50;87.90
49385;DHT22;36795;45.028;38.968;2023-11-21T00:39:27;5.50;88.00
49385;DHT22;36795;45.028;38.968;2023-11-21T00:42:13;5.50;88.00
49385;DHT22;36795;45.028;38.968;2023-11-21T00:44:59;5.50;88.00
49385;DHT22;36795;45.028;38.968;2023-11-21T00:47:46;5.40;88.00
49385;DHT22;36795;45.028;38.968;2023-11-21T00:50:31;5.40;88.30
49385;DHT22;36795;45.028;38.968;2023-11-21T00:53:17;5.40;88.50
49385;DHT22;36795;45.028;38.968;2023-11-21T00:56:03;5.40;88.50
49385;DHT22;36795;45.028;38.968;2023-11-21T00:58:50;5.40;88.40
49385;DHT22;36795;45.028;38.968;2023-11-21T01:01:37;5.30;88.70
49385;DHT22;36795;45.028;38.968;2023-11-21T01:04:24;5.30;88.80
49385;DHT22;36795;45.028;38.968;2023-11-21T01:07:10;5.30;89.20
49385;DHT22;36795;45.028;38.968;2023-11-21T01:09:56;5.30;89.20
49385;DHT22;36795;45.028;38.968;2023-11-21T01:12:42;5.30;89.50
49385;DHT22;36795;45.028;38.968;2023-11-21T01:15:28;5.30;89.50
49385;DHT22;36795;45.028;38.968;2023-11-21T01:18:14;5.30;89.20
49385;DHT22;36795;45.028;38.968;2023-11-21T01:21:00;5.30;89.40
49385;DHT22;36795;45.028;38.968;2023-11-21T01:23:46;5.30;89.40
49385;DHT22;36795;45.028;38.968;2023-11-21T01:26:33;5.30;89.50
49385;DHT22;36795;45.028;38.968;2023-11-21T01:29:20;5.40;89.70
49385;DHT22;36795;45.028;38.968;2023-11-21T01:32:07;5.40;89.80
49385;DHT22;36795;45.028;38.968;2023-11-21T01:34:53;5.50;89.70
49385;DHT22;36795;45.028;38.968;2023-11-21T01:37:39;5.50;89.60
49385;DHT22;36795;45.028;38.968;2023-11-21T01:40:25;5.50;89.10
49385;DHT22;36795;45.028;38.968;2023-11-21T01:43:11;5.50;88.50
49385;DHT22;36795;45.028;38.968;2023-11-21T01:45:57;5.50;88.30
49385;DHT22;36795;45.028;38.968;2023-11-21T01:48:44;5.50;88.50
49385;DHT22;36795;45.028;38.968;2023-11-21T01:51:30;5.50;88.50
49385;DHT22;36795;45.028;38.968;2023-11-21T01:54:18;5.50;88.40
49385;DHT22;36795;45.028;38.968;2023-11-21T01:57:06;5.50;88.30
49385;DHT22;36795;45.028;38.968;2023-11-21T01:59:54;5.50;87.80
49385;DHT22;36795;45.028;38.968;2023-11-21T02:02:40;5.40;87.70
49385;DHT22;36795;45.028;38.968;2023-11-21T02:05:26;5.40;87.90
49385;DHT22;36795;45.028;38.968;2023-11-21T02:08:11;5.40;87.80
49385;DHT22;36795;45.028;38.968;2023-11-21T02:10:58;5.30;87.90
49385;DHT22;36795;45.028;38.968;2023-11-21T02:13:43;5.30;88.40
49385;DHT22;36795;45.028;38.968;2023-11-21T02:16:32;5.30;88.70
49385;DHT22;36795;45.028;38.968;2023-11-21T02:19:20;5.30;88.70
49385;DHT22;36795;45.028;38.968;2023-11-21T02:22:09;5.30;88.80
49385;DHT22;36795;45.028;38.968;2023-11-21T02:24:55;5.30;88.80
49385;DHT22;36795;45.028;38.968;2023-11-21T02:27:41;5.30;88.60
49385;DHT22;36795;45.028;38.968;2023-11-21T02:30:28;5.30;88.50
49385;DHT22;36795;45.028;38.968;2023-11-21T02:33:16;5.30;88.90
49385;DHT22;36795;45.028;38.968;2023-11-21T02:36:02;5.30;88.60
49385;DHT22;36795;45.028;38.968;2023-11-21T02:38:48;5.30;88.70
49385;DHT22;36795;45.028;38.968;2023-11-21T02:41:34;5.30;88.60
49385;DHT22;36795;45.028;38.968;2023-11-21T02:44:21;5.30;88.80
49385;DHT22;36795;45.028;38.968;2023-11-21T02:47:07;5.30;88.40
49385;DHT22;36795;45.028;38.968;2023-11-21T02:49:53;5.30;88.60
49385;DHT22;36795;45.028;38.968;2023-11-21T02:52:39;5.30;88.50
49385;DHT22;36795;45.028;38.968;2023-11-21T02:55:28;5.30;88.40
49385;DHT22;36795;45.028;38.968;2023-11-21T02:58:14;5.30;88.20
49385;DHT22;36795;45.028;38.968;2023-11-21T03:01:02;5.30;88.10
49385;DHT22;36795;45.028;38.968;2023-11-21T03:03:47;5.20;88.50
49385;DHT22;36795;45.028;38.968;2023-11-21T03:06:36;5.20;88.40
49385;DHT22;36795;45.028;38.968;2023-11-21T03:09:22;5.20;88.50
49385;DHT22;36795;45.028;38.968;2023-11-21T03:12:10;5.20;88.40
49385;DHT22;36795;45.028;38.968;2023-11-21T03:14:57;5.20;88.60
49385;DHT22;36795;45.028;38.968;2023-11-21T03:17:44;5.20;88.60
49385;DHT22;36795;45.028;38.968;2023-11-21T03:20:29;5.20;88.80
49385;DHT22;36795;45.028;38.968;2023-11-21T03:23:16;5.20;88.90
49385;DHT22;36795;45.028;38.968;2023-11-21T03:26:02;5.20;89.10
49385;DHT22;36795;45.028;38.968;2023-11-21T03:28:49;5.20;89.10
49385;DHT22;36795;45.028;38.968;2023-11-21T03:31:35;5.20;89.20
49385;DHT22;36795;45.028;38.968;2023-11-21T03:34:27;5.20;89.30
49385;DHT22;36795;45.028;38.968;2023-11-21T03:37:13;5.20;89.50
49385;DHT22;36795;45.028;38.968;2023-11-21T03:39:59;5.20;89.70
49385;DHT22;36795;45.028;38.968;2023-11-21T03:42:45;5.20;89.60
49385;DHT22;36795;45.028;38.968;2023-11-21T03:45:32;5.20;89.40
49385;DHT22;36795;45.028;38.968;2023-11-21T03:48:17;5.20;89.60
49385;DHT22;36795;45.028;38.968;2023-11-21T03:51:04;5.20;89.60
49385;DHT22;36795;45.028;38.968;2023-11-21T03:53:50;5.10;89.60
49385;DHT22;36795;45.028;38.968;2023-11-21T03:56:36;5.10;89.80
49385;DHT22;36795;45.028;38.968;2023-11-21T03:59:22;5.10;89.60
49385;DHT22;36795;45.028;38.968;2023-11-21T04:02:10;5.20;90.10
49385;DHT22;36795;45.028;38.968;2023-11-21T04:04:56;5.20;89.70
49385;DHT22;36795;45.028;38.968;2023-11-21T04:07:42;5.10;89.80
49385;DHT22;36795;45.028;38.968;2023-11-21T04:10:28;5.10;89.50
49385;DHT22;36795;45.028;38.968;2023-11-21T04:13:14;5.10;89.70
49385;DHT22;36795;45.028;38.968;2023-11-21T04:16:01;5.10;89.60
49385;DHT22;36795;45.028;38.968;2023-11-21T04:18:48;5.10;89.50
49385;DHT22;36795;45.028;38.968;2023-11-21T04:21:35;5.00;89.50
49385;DHT22;36795;45.028;38.968;2023-11-21T04:24:21;5.00;89.60
49385;DHT22;36795;45.028;38.968;2023-11-21T04:27:07;5.10;89.80
49385;DHT22;36795;45.028;38.968;2023-11-21T04:29:53;5.10;89.90
49385;DHT22;36795;45.028;38.968;2023-11-21T04:32:39;5.20;89.80
49385;DHT22;36795;45.028;38.968;2023-11-21T04:35:25;5.10;89.40
49385;DHT22;36795;45.028;38.968;2023-11-21T04:38:11;5.20;89.60
49385;DHT22;36795;45.028;38.968;2023-11-21T04:40:57;5.20;89.80
49385;DHT22;36795;45.028;38.968;2023-11-21T04:43:43;5.20;89.60
49385;DHT22;36795;45.028;38.968;2023-11-21T04:46:30;5.20;89.50
49385;DHT22;36795;45.028;38.968;2023-11-21T04:49:16;5.30;89.60
49385;DHT22;36795;45.028;38.968;2023-11-21T04:52:02;5.30;89.60
49385;DHT22;36795;45.028;38.968;2023-11-21T04:54:49;5.30;89.50
49385;DHT22;36795;45.028;38.968;2023-11-21T04:57:38;5.30;89.50
49385;DHT22;36795;45.028;38.968;2023-11-21T05:00:24;5.20;89.40
49385;DHT22;36795;45.028;38.968;2023-11-21T05:03:10;5.20;89.40
49385;DHT22;36795;45.028;38.968;2023-11-21T05:05:56;5.20;89.40
49385;DHT22;36795;45.028;38.968;2023-11-21T05:08:42;5.20;89.20
49385;DHT22;36795;45.028;38.968;2023-11-21T05:11:29;5.20;89.30
49385;DHT22;36795;45.028;38.968;2023-11-21T05:14:14;5.30;90.00
49385;DHT22;36795;45.028;38.968;2023-11-21T05:17:01;5.30;89.40
49385;DHT22;36795;45.028;38.968;2023-11-21T05:19:46;5.30;89.40
49385;DHT22;36795;45.028;38.968;2023-11-21T05:22:35;5.30;89.00
49385;DHT22;36795;45.028;38.968;2023-11-21T05:25:21;5.30;89.10
49385;DHT22;36795;45.028;38.968;2023-11-21T05:28:07;5.30;89.20
49385;DHT22;36795;45.028;38.968;2023-11-21T05:30:53;5.30;88.90
49385;DHT22;36795;45.028;38.968;2023-11-21T05:33:40;5.30;89.00
49385;DHT22;36795;45.028;38.968;2023-11-21T05:36:26;5.30;88.80
49385;DHT22;36795;45.028;38.968;2023-11-21T05:39:13;5.40;88.90
49385;DHT22;36795;45.028;38.968;2023-11-21T05:41:59;5.40;88.80
49385;DHT22;36795;45.028;38.968;2023-11-21T05:44:46;5.50;88.90
49385;DHT22;36795;45.028;38.968;2023-11-21T05:47:32;5.50;88.80
49385;DHT22;36795;45.028;38.968;2023-11-21T05:50:18;5.50;88.60
49385;DHT22;36795;45.028;38.968;2023-11-21T05:53:04;5.50;88.30
49385;DHT22;36795;45.028;38.968;2023-11-21T05:55:50;5.40;87.80
49385;DHT22;36795;45.028;38.968;2023-11-21T05:58:36;5.40;88.30
49385;DHT22;36795;45.028;38.968;2023-11-21T06:01:23;5.40;88.00
49385;DHT22;36795;45.028;38.968;2023-11-21T06:04:09;5.30;88.10
49385;DHT22;36795;45.028;38.968;2023-11-21T06:06:56;5.30;88.30
49385;DHT22;36795;45.028;38.968;2023-11-21T06:09:42;5.30;88.40
49385;DHT22;36795;45.028;38.968;2023-11-21T06:12:27;5.40;88.60
49385;DHT22;36795;45.028;38.968;2023-11-21T06:15:14;5.40;88.30
49385;DHT22;36795;45.028;38.968;2023-11-21T06:18:00;5.40;88.40
49385;DHT22;36795;45.028;38.968;2023-11-21T06:20:46;5.40;88.50
49385;DHT22;36795;45.028;38.968;2023-11-21T06:23:32;5.50;88.50
49385;DHT22;36795;45.028;38.968;2023-11-21T06:26:18;5.50;88.10
49385;DHT22;36795;45.028;38.968;2023-11-21T06:29:04;5.50;87.80
49385;DHT22;36795;45.028;38.968;2023-11-21T06:31:50;5.40;87.80
49385;DHT22;36795;45.028;38.968;2023-11-21T06:34:36;5.40;87.80
49385;DHT22;36795;45.028;38.968;2023-11-21T06:37:22;5.50;88.00
49385;DHT22;36795;45.028;38.968;2023-11-21T06:40:09;5.40;87.60
49385;DHT22;36795;45.028;38.968;2023-11-21T06:42:55;5.50;87.90
49385;DHT22;36795;45.028;38.968;2023-11-21T06:45:44;5.50;87.80
49385;DHT22;36795;45.028;38.968;2023-11-21T06:48:30;5.50;87.80
49385;DHT22;36795;45.028;38.968;2023-11-21T06:51:16;5.50;87.50
49385;DHT22;36795;45.028;38.968;2023-11-21T06:54:03;5.50;87.60
49385;DHT22;36795;45.028;38.968;2023-11-21T06:56:49;5.60;87.60
49385;DHT22;36795;45.028;38.968;2023-11-21T06:59:35;5.60;87.50
49385;DHT22;36795;45.028;38.968;2023-11-21T07:02:20;5.60;87.40
49385;DHT22;36795;45.028;38.968;2023-11-21T07:05:07;5.70;87.30
49385;DHT22;36795;45.028;38.968;2023-11-21T07:07:53;5.70;87.10
49385;DHT22;36795;45.028;38.968;2023-11-21T07:10:40;5.70;87.20
49385;DHT22;36795;45.028;38.968;2023-11-21T07:13:25;5.70;87.10
49385;DHT22;36795;45.028;38.968;2023-11-21T07:16:12;5.70;87.80
49385;DHT22;36795;45.028;38.968;2023-11-21T07:18:58;5.70;87.50
49385;DHT22;36795;45.028;38.968;2023-11-21T07:21:44;5.80;87.60
49385;DHT22;36795;45.028;38.968;2023-11-21T07:24:30;5.80;87.50
49385;DHT22;36795;45.028;38.968;2023-11-21T07:27:17;5.80;87.60
49385;DHT22;36795;45.028;38.968;2023-11-21T07:30:04;5.80;87.70
49385;DHT22;36795;45.028;38.968;2023-11-21T07:32:51;5.90;88.00
49385;DHT22;36795;45.028;38.968;2023-11-21T07:35:37;5.80;88.00
49385;DHT22;36795;45.028;38.968;2023-11-21T07:38:23;5.80;87.90
49385;DHT22;36795;45.028;38.968;2023-11-21T07:41:09;5.90;88.10
49385;DHT22;36795;45.028;38.968;2023-11-21T07:43:56;5.90;88.20
49385;DHT22;36795;45.028;38.968;2023-11-21T07:46:41;5.90;88.30
49385;DHT22;36795;45.028;38.968;2023-11-21T07:49:28;5.90;88.40
49385;DHT22;36795;45.028;38.968;2023-11-21T07:52:14;5.90;88.70
49385;DHT22;36795;45.028;38.968;2023-11-21T07:55:02;5.90;88.70
49385;DHT22;36795;45.028;38.968;2023-11-21T07:57:49;5.90;89.10
49385;DHT22;36795;45.028;38.968;2023-11-21T08:00:35;6.00;88.90
49385;DHT22;36795;45.028;38.968;2023-11-21T08:03:21;5.90;88.90
49385;DHT22;36795;45.028;38.968;2023-11-21T08:06:07;6.00;88.80
49385;DHT22;36795;45.028;38.968;2023-11-21T08:08:53;6.00;88.60
49385;DHT22;36795;45.028;38.968;2023-11-21T08:11:40;6.00;88.10
49385;DHT22;36795;45.028;38.968;2023-11-21T08:14:26;6.00;88.30
49385;DHT22;36795;45.028;38.968;2023-11-21T08:17:12;6.00;88.30
49385;DHT22;36795;45.028;38.968;2023-11-21T08:19:58;6.10;88.40
49385;DHT22;36795;45.028;38.968;2023-11-21T08:22:45;6.10;88.10
49385;DHT22;36795;45.028;38.968;2023-11-21T08:25:33;6.10;88.10
49385;DHT22;36795;45.028;38.968;2023-11-21T08:28:20;6.10;87.50
49385;DHT22;36795;45.028;38.968;2023-11-21T08:31:11;6.10;87.50
49385;DHT22;36795;45.028;38.968;2023-11-21T08:33:57;6.10;87.30
49385;DHT22;36795;45.028;38.968;2023-11-21T08:36:44;6.10;87.10
49385;DHT22;36795;45.028;38.968;2023-11-21T08:39:30;6.10;86.80
49385;DHT22;36795;45.028;38.968;2023-11-21T08:42:16;6.10;85.30
49385;DHT22;36795;45.028;38.968;2023-11-21T08:45:04;6.10;85.20
49385;DHT22;36795;45.028;38.968;2023-11-21T08:47:50;6.10;84.00
49385;DHT22;36795;45.028;38.968;2023-11-21T08:50:36;6.00;84.40
49385;DHT22;36795;45.028;38.968;2023-11-21T08:53:22;6.00;83.60
49385;DHT22;36795;45.028;38.968;2023-11-21T08:56:18;6.00;83.60
49385;DHT22;36795;45.028;38.968;2023-11-21T08:59:06;6.00;83.60
49385;DHT22;36795;45.028;38.968;2023-11-21T09:01:53;6.00;83.50
49385;DHT22;36795;45.028;38.968;2023-11-21T09:04:39;6.00;83.50
49385;DHT22;36795;45.028;38.968;2023-11-21T09:07:25;5.90;83.20
49385;DHT22;36795;45.028;38.968;2023-11-21T09:10:11;6.00;83.40
49385;DHT22;36795;45.028;38.968;2023-11-21T09:12:57;6.00;83.00
49385;DHT22;36795;45.028;38.968;2023-11-21T09:15:44;6.00;83.00
49385;DHT22;36795;45.028;38.968;2023-11-21T09:18:34;6.00;82.80
49385;DHT22;36795;45.028;38.968;2023-11-21T09:21:21;5.90;83.00
49385;DHT22;36795;45.028;38.968;2023-11-21T09:24:07;6.00;83.00
49385;DHT22;36795;45.028;38.968;2023-11-21T09:26:54;6.00;83.10
49385;DHT22;36795;45.028;38.968;2023-11-21T09:29:40;6.00;83.20
49385;DHT22;36795;45.028;38.968;2023-11-21T09:32:26;6.00;82.90
49385;DHT22;36795;45.028;38.968;2023-11-21T09:35:12;6.00;82.90
49385;DHT22;36795;45.028;38.968;2023-11-21T09:37:59;5.90;82.80
49385;DHT22;36795;45.028;38.968;2023-11-21T09:40:47;5.90;82.90
49385;DHT22;36795;45.028;38.968;2023-11-21T09:43:33;5.80;82.90
49385;DHT22;36795;45.028;38.968;2023-11-21T09:46:20;5.90;83.30
49385;DHT22;36795;45.028;38.968;2023-11-21T09:49:12;5.90;83.60
49385;DHT22;36795;45.028;38.968;2023-11-21T09:51:58;5.90;83.60
49385;DHT22;36795;45.028;38.968;2023-11-21T09:54:50;6.00;83.60
49385;DHT22;36795;45.028;38.968;2023-11-21T09:57:36;6.00;83.50
49385;DHT22;36795;45.028;38.968;2023-11-21T10:00:23;6.00;83.50
49385;DHT22;36795;45.028;38.968;2023-11-21T10:03:14;6.00;83.10
49385;DHT22;36795;45.028;38.968;2023-11-21T10:06:00;6.00;83.60
49385;DHT22;36795;45.028;38.968;2023-11-21T10:08:48;6.00;83.80
49385;DHT22;36795;45.028;38.968;2023-11-21T10:11:36;6.00;84.20
49385;DHT22;36795;45.028;38.968;2023-11-21T10:14:24;6.10;84.50
49385;DHT22;36795;45.028;38.968;2023-11-21T10:17:12;6.20;84.60
49385;DHT22;36795;45.028;38.968;2023-11-21T10:20:03;6.20;84.60
49385;DHT22;36795;45.028;38.968;2023-11-21T10:22:51;6.10;85.10
49385;DHT22;36795;45.028;38.968;2023-11-21T10:25:38;6.20;85.60
49385;DHT22;36795;45.028;38.968;2023-11-21T10:28:24;6.20;86.00
49385;DHT22;36795;45.028;38.968;2023-11-21T10:31:11;6.20;86.40
49385;DHT22;36795;45.028;38.968;2023-11-21T10:34:14;6.30;86.40
49385;DHT22;36795;45.028;38.968;2023-11-21T10:37:12;6.30;86.20
49385;DHT22;36795;45.028;38.968;2023-11-21T10:39:58;6.40;85.80
49385;DHT22;36795;45.028;38.968;2023-11-21T10:42:45;6.40;85.50
49385;DHT22;36795;45.028;38.968;2023-11-21T10:45:31;6.40;85.90
49385;DHT22;36795;45.028;38.968;2023-11-21T10:48:17;6.30;85.60
49385;DHT22;36795;45.028;38.968;2023-11-21T10:51:07;6.20;86.20
49385;DHT22;36795;45.028;38.968;2023-11-21T10:53:56;6.30;86.70
49385;DHT22;36795;45.028;38.968;2023-11-21T10:56:41;6.40;86.70
49385;DHT22;36795;45.028;38.968;2023-11-21T10:59:30;6.40;86.50
49385;DHT22;36795;45.028;38.968;2023-11-21T11:02:26;6.40;86.50
49385;DHT22;36795;45.028;38.968;2023-11-21T11:05:19;6.40;86.80
49385;DHT22;36795;45.028;38.968;2023-11-21T11:08:07;6.40;86.70
49385;DHT22;36795;45.028;38.968;2023-11-21T11:10:54;6.40;86.90
49385;DHT22;36795;45.028;38.968;2023-11-21T11:13:44;6.50;86.80
49385;DHT22;36795;45.028;38.968;2023-11-21T11:16:32;6.60;86.30
49385;DHT22;36795;45.028;38.968;2023-11-21T11:19:18;6.70;85.40
49385;DHT22;36795;45.028;38.968;2023-11-21T11:22:15;6.70;84.30
49385;DHT22;36795;45.028;38.968;2023-11-21T11:25:25;6.60;84.50
49385;DHT22;36795;45.028;38.968;2023-11-21T11:28:22;6.60;84.70
49385;DHT22;36795;45.028;38.968;2023-11-21T11:31:48;6.70;85.00
49385;DHT22;36795;45.028;38.968;2023-11-21T11:34:48;6.70;84.60
49385;DHT22;36795;45.028;38.968;2023-11-21T11:37:36;6.80;84.30
49385;DHT22;36795;45.028;38.968;2023-11-21T11:40:25;6.70;84.40
49385;DHT22;36795;45.028;38.968;2023-11-21T11:43:11;6.80;84.40
49385;DHT22;36795;45.028;38.968;2023-11-21T11:45:59;6.90;85.00
49385;DHT22;36795;45.028;38.968;2023-11-21T11:48:45;6.90;84.40
49385;DHT22;36795;45.028;38.968;2023-11-21T11:51:31;7.00;84.00
49385;DHT22;36795;45.028;38.968;2023-11-21T11:54:34;7.00;83.00
49385;DHT22;36795;45.028;38.968;2023-11-21T11:57:24;7.00;82.90
49385;DHT22;36795;45.028;38.968;2023-11-21T12:00:36;7.00;82.70
49385;DHT22;36795;45.028;38.968;2023-11-21T12:03:25;7.10;82.90
49385;DHT22;36795;45.028;38.968;2023-11-21T12:06:11;7.20;82.50
49385;DHT22;36795;45.028;38.968;2023-11-21T12:09:01;7.20;82.10
49385;DHT22;36795;45.028;38.968;2023-11-21T12:11:50;7.20;82.00
49385;DHT22;36795;45.028;38.968;2023-11-21T12:14:37;7.00;82.10
49385;DHT22;36795;45.028;38.968;2023-11-21T12:17:22;7.00;82.50
49385;DHT22;36795;45.028;38.968;2023-11-21T12:20:10;6.90;82.70
49385;DHT22;36795;45.028;38.968;2023-11-21T12:23:05;6.90;82.90
49385;DHT22;36795;45.028;38.968;2023-11-21T12:25:52;7.00;82.90
49385;DHT22;36795;45.028;38.968;2023-11-21T12:28:39;7.00;83.00
49385;DHT22;36795;45.028;38.968;2023-11-21T12:31:25;7.10;82.90
49385;DHT22;36795;45.028;38.968;2023-11-21T12:34:11;7.10;83.10
49385;DHT22;36795;45.028;38.968;2023-11-21T12:36:59;7.20;82.80
49385;DHT22;36795;45.028;38.968;2023-11-21T12:39:45;7.30;82.60
49385;DHT22;36795;45.028;38.968;2023-11-21T12:42:32;7.30;81.60
49385;DHT22;36795;45.028;38.968;2023-11-21T12:48:06;7.20;81.20
49385;DHT22;36795;45.028;38.968;2023-11-21T12:50:56;7.20;81.20
49385;DHT22;36795;45.028;38.968;2023-11-21T12:53:45;7.10;80.50
49385;DHT22;36795;45.028;38.968;2023-11-21T12:56:32;7.10;80.80
49385;DHT22;36795;45.028;38.968;2023-11-21T12:59:20;7.00;80.70
49385;DHT22;36795;45.028;38.968;2023-11-21T13:02:06;7.00;80.80
49385;DHT22;36795;45.028;38.968;2023-11-21T13:04:53;6.90;80.90
49385;DHT22;36795;45.028;38.968;2023-11-21T13:07:42;6.90;81.00
49385;DHT22;36795;45.028;38.968;2023-11-21T13:10:33;6.90;81.20
49385;DHT22;36795;45.028;38.968;2023-11-21T13:13:22;6.90;81.50
49385;DHT22;36795;45.028;38.968;2023-11-21T13:16:10;6.90;81.50
49385;DHT22;36795;45.028;38.968;2023-11-21T13:18:56;6.90;81.00
49385;DHT22;36795;45.028;38.968;2023-11-21T13:21:42;6.90;80.80
49385;DHT22;36795;45.028;38.968;2023-11-21T13:24:29;6.90;80.70
49385;DHT22;36795;45.028;38.968;2023-11-21T13:27:15;6.90;80.60
49385;DHT22;36795;45.028;38.968;2023-11-21T13:30:01;6.90;80.80
49385;DHT22;36795;45.028;38.968;2023-11-21T13:32:48;6.90;80.60
49385;DHT22;36795;45.028;38.968;2023-11-21T13:35:38;6.80;80.90
49385;DHT22;36795;45.028;38.968;2023-11-21T13:38:34;6.80;80.70
49385;DHT22;36795;45.028;38.968;2023-11-21T13:41:21;6.80;80.90
49385;DHT22;36795;45.028;38.968;2023-11-21T13:44:16;6.80;80.50
49385;DHT22;36795;45.028;38.968;2023-11-21T13:47:12;6.80;80.70
49385;DHT22;36795;45.028;38.968;2023-11-21T13:49:59;6.80;80.60
49385;DHT22;36795;45.028;38.968;2023-11-21T13:52:46;6.80;80.10
49385;DHT22;36795;45.028;38.968;2023-11-21T13:55:40;6.80;80.20
49385;DHT22;36795;45.028;38.968;2023-11-21T13:58:26;6.70;80.10
49385;DHT22;36795;45.028;38.968;2023-11-21T14:01:38;6.80;80.10
49385;DHT22;36795;45.028;38.968;2023-11-21T14:04:49;6.70;80.00
49385;DHT22;36795;45.028;38.968;2023-11-21T14:07:41;6.80;79.70
49385;DHT22;36795;45.028;38.968;2023-11-21T14:10:34;6.70;78.30
49385;DHT22;36795;45.028;38.968;2023-11-21T14:13:29;6.70;78.50
49385;DHT22;36795;45.028;38.968;2023-11-21T14:16:15;6.70;78.30
49385;DHT22;36795;45.028;38.968;2023-11-21T14:19:02;6.60;78.00
49385;DHT22;36795;45.028;38.968;2023-11-21T14:22:01;6.60;76.90
49385;DHT22;36795;45.028;38.968;2023-11-21T14:24:46;6.60;75.90
49385;DHT22;36795;45.028;38.968;2023-11-21T14:27:33;6.50;75.00
49385;DHT22;36795;45.028;38.968;2023-11-21T14:30:19;6.50;74.60
49385;DHT22;36795;45.028;38.968;2023-11-21T14:33:08;6.40;74.40
49385;DHT22;36795;45.028;38.968;2023-11-21T14:35:57;6.40;74.90
49385;DHT22;36795;45.028;38.968;2023-11-21T14:38:43;6.40;74.90
49385;DHT22;36795;45.028;38.968;2023-11-21T14:41:29;6.40;74.30
49385;DHT22;36795;45.028;38.968;2023-11-21T14:44:15;6.40;73.60
49385;DHT22;36795;45.028;38.968;2023-11-21T14:47:01;6.40;73.00
49385;DHT22;36795;45.028;38.968;2023-11-21T14:49:53;6.40;73.00
49385;DHT22;36795;45.028;38.968;2023-11-21T14:52:38;6.40;72.90
49385;DHT22;36795;45.028;38.968;2023-11-21T14:55:40;6.40;73.10
49385;DHT22;36795;45.028;38.968;2023-11-21T14:58:44;6.40;73.30
49385;DHT22;36795;45.028;38.968;2023-11-21T15:01:36;6.30;73.40
49385;DHT22;36795;45.028;38.968;2023-11-21T15:05:07;6.40;73.20
49385;DHT22;36795;45.028;38.968;2023-11-21T15:08:14;6.30;73.50
49385;DHT22;36795;45.028;38.968;2023-11-21T15:11:28;6.30;73.90
49385;DHT22;36795;45.028;38.968;2023-11-21T15:14:17;6.30;74.20
49385;DHT22;36795;45.028;38.968;2023-11-21T15:17:10;6.40;74.00
49385;DHT22;36795;45.028;38.968;2023-11-21T15:19:58;6.40;73.90
49385;DHT22;36795;45.028;38.968;2023-11-21T15:22:45;6.40;74.10
49385;DHT22;36795;45.028;38.968;2023-11-21T15:25:32;6.40;73.90
49385;DHT22;36795;45.028;38.968;2023-11-21T15:28:19;6.50;73.70
49385;DHT22;36795;45.028;38.968;2023-11-21T15:31:05;6.50;73.30
49385;DHT22;36795;45.028;38.968;2023-11-21T15:33:53;6.40;73.10
49385;DHT22;36795;45.028;38.968;2023-11-21T15:36:39;6.40;73.00
49385;DHT22;36795;45.028;38.968;2023-11-21T15:39:25;6.40;72.60
49385;DHT22;36795;45.028;38.968;2023-11-21T15:42:15;6.40;72.80
49385;DHT22;36795;45.028;38.968;2023-11-21T15:45:02;6.40;73.00
49385;DHT22;36795;45.028;38.968;2023-11-21T15:47:50;6.40;73.10
49385;DHT22;36795;45.028;38.968;2023-11-21T15:50:36;6.40;72.90
49385;DHT22;36795;45.028;38.968;2023-11-21T15:53:22;6.40;73.40
49385;DHT22;36795;45.028;38.968;2023-11-21T15:56:09;6.50;73.60
49385;DHT22;36795;45.028;38.968;2023-11-21T15:58:58;6.50;73.40
49385;DHT22;36795;45.028;38.968;2023-11-21T16:01:44;6.50;73.50
49385;DHT22;36795;45.028;38.968;2023-11-21T16:04:33;6.40;73.80
49385;DHT22;36795;45.028;38.968;2023-11-21T16:07:22;6.50;74.20
49385;DHT22;36795;45.028;38.968;2023-11-21T16:10:09;6.50;74.30
49385;DHT22;36795;45.028;38.968;2023-11-21T16:13:00;6.50;74.00
49385;DHT22;36795;45.028;38.968;2023-11-21T16:15:46;6.50;74.20
49385;DHT22;36795;45.028;38.968;2023-11-21T16:18:32;6.50;74.40
49385;DHT22;36795;45.028;38.968;2023-11-21T16:21:19;6.50;73.90
49385;DHT22;36795;45.028;38.968;2023-11-21T16:24:06;6.50;73.60
49385;DHT22;36795;45.028;38.968;2023-11-21T16:26:52;6.40;74.10
49385;DHT22;36795;45.028;38.968;2023-11-21T16:29:39;6.40;73.60
49385;DHT22;36795;45.028;38.968;2023-11-21T16:32:26;6.50;73.60
49385;DHT22;36795;45.028;38.968;2023-11-21T16:35:12;6.40;73.40
49385;DHT22;36795;45.028;38.968;2023-11-21T16:38:00;6.50;73.50
49385;DHT22;36795;45.028;38.968;2023-11-21T16:40:46;6.50;73.20
49385;DHT22;36795;45.028;38.968;2023-11-21T16:43:34;6.50;73.20
49385;DHT22;36795;45.028;38.968;2023-11-21T16:46:20;6.50;72.50
49385;DHT22;36795;45.028;38.968;2023-11-21T16:49:06;6.60;72.90
49385;DHT22;36795;45.028;38.968;2023-11-21T16:51:53;6.60;73.00
49385;DHT22;36795;45.028;38.968;2023-11-21T16:54:41;6.60;73.00
49385;DHT22;36795;45.028;38.968;2023-11-21T16:57:27;6.50;73.10
49385;DHT22;36795;45.028;38.968;2023-11-21T17:00:14;6.60;73.10
49385;DHT22;36795;45.028;38.968;2023-11-21T17:03:01;6.50;73.40
49385;DHT22;36795;45.028;38.968;2023-11-21T17:05:48;6.60;72.70
49385;DHT22;36795;45.028;38.968;2023-11-21T17:08:34;6.50;72.50
49385;DHT22;36795;45.028;38.968;2023-11-21T17:11:20;6.50;72.70
49385;DHT22;36795;45.028;38.968;2023-11-21T17:14:08;6.50;72.80
49385;DHT22;36795;45.028;38.968;2023-11-21T17:16:54;6.50;73.00
49385;DHT22;36795;45.028;38.968;2023-11-21T17:19:41;6.50;73.90
49385;DHT22;36795;45.028;38.968;2023-11-21T17:22:29;6.50;73.50
49385;DHT22;36795;45.028;38.968;2023-11-21T17:25:15;6.60;73.70
49385;DHT22;36795;45.028;38.968;2023-11-21T17:28:02;6.50;73.80
49385;DHT22;36795;45.028;38.968;2023-11-21T17:30:48;6.60;74.00
49385;DHT22;36795;45.028;38.968;2023-11-21T17:33:35;6.60;74.10
49385;DHT22;36795;45.028;38.968;2023-11-21T17:36:21;6.50;73.90
49385;DHT22;36795;45.028;38.968;2023-11-21T17:39:09;6.50;73.90
49385;DHT22;36795;45.028;38.968;2023-11-21T17:41:55;6.50;74.20